createdAt,value
2022-10-12T00:02:14.357Z,16.27
2022-10-12T00:04:41.737Z,15.53
2022-10-12T00:07:09.110Z,15.63
2022-10-12T00:09:36.469Z,16.47
2022-10-12T00:12:04.056Z,15.90
2022-10-12T00:14:31.446Z,16.10
2022-10-12T00:17:00.148Z,16.53
2022-10-12T00:19:27.486Z,16.60
2022-10-12T00:21:54.833Z,16.10
2022-10-12T00:24:22.161Z,16.57
2022-10-12T00:26:50.823Z,15.73
2022-10-12T00:29:18.253Z,16.43
2022-10-12T00:31:45.785Z,16.10
2022-10-12T00:34:14.636Z,16.97
2022-10-12T00:36:41.988Z,16.20
2022-10-12T00:39:10.412Z,16.60
2022-10-12T00:41:39.900Z,16.23
2022-10-12T00:44:35.097Z,15.93
2022-10-12T00:47:05.467Z,16.70
2022-10-12T00:49:34.245Z,16.47
2022-10-12T00:52:12.855Z,16.80
2022-10-12T00:54:48.129Z,16.90
2022-10-12T00:57:17.405Z,16.53
2022-10-12T00:59:47.492Z,16.70
2022-10-12T01:02:15.129Z,17.07
2022-10-12T01:04:44.257Z,17.40
2022-10-12T01:07:11.650Z,16.77
2022-10-12T01:09:39.113Z,17.33
2022-10-12T01:12:08.377Z,17.43
2022-10-12T01:14:35.853Z,16.83
2022-10-12T01:17:11.095Z,16.90
2022-10-12T01:20:19.114Z,16.50
2022-10-12T01:22:54.301Z,16.67
2022-10-12T01:25:31.484Z,16.90
2022-10-12T01:28:03.981Z,16.97
2022-10-12T01:30:34.445Z,16.17
2022-10-12T01:33:26.036Z,16.60
2022-10-12T01:35:57.903Z,16.70
2022-10-12T01:38:42.462Z,16.50
2022-10-12T01:41:14.705Z,16.67
2022-10-12T01:43:44.453Z,16.63
2022-10-12T01:46:41.758Z,16.97
2022-10-12T01:49:09.870Z,16.33
2022-10-12T01:51:52.361Z,16.40
2022-10-12T01:54:27.136Z,16.67
2022-10-12T01:56:57.818Z,17.20
2022-10-12T01:59:32.897Z,17.27
2022-10-12T02:02:06.969Z,16.43
2022-10-12T02:04:38.734Z,16.97
2022-10-12T02:07:10.032Z,16.60
2022-10-12T02:09:38.073Z,16.67
2022-10-12T02:12:07.478Z,16.53
2022-10-12T02:14:38.330Z,16.17
2022-10-12T02:17:10.717Z,16.30
2022-10-12T02:19:41.269Z,16.97
2022-10-12T02:22:09.962Z,16.97
2022-10-12T02:24:39.841Z,16.60
2022-10-12T02:27:08.353Z,16.10
2022-10-12T02:29:38.202Z,16.60
2022-10-12T02:32:10.965Z,15.90
2022-10-12T02:34:44.217Z,16.47
2022-10-12T02:37:13.481Z,16.53
2022-10-12T02:39:44.629Z,16.70
2022-10-12T02:42:14.114Z,16.30
2022-10-12T02:44:42.793Z,16.90
2022-10-12T02:47:12.393Z,17.00
2022-10-12T02:49:43.430Z,16.80
2022-10-12T02:52:10.890Z,17.33
2022-10-12T02:54:38.487Z,17.40
2022-10-12T02:57:05.839Z,17.40
2022-10-12T02:59:33.277Z,16.83
2022-10-12T03:02:00.657Z,16.77
2022-10-12T03:04:29.376Z,16.90
2022-10-12T03:06:56.798Z,17.10
2022-10-12T03:09:24.231Z,16.80
2022-10-12T03:11:51.600Z,16.57
2022-10-12T03:14:20.866Z,17.33
2022-10-12T03:16:48.458Z,16.50
2022-10-12T03:19:15.954Z,17.10
2022-10-12T03:21:44.704Z,16.83
2022-10-12T03:24:12.132Z,16.80
2022-10-12T03:26:40.326Z,16.60
2022-10-12T03:29:09.132Z,16.90
2022-10-12T03:31:36.483Z,15.80
2022-10-12T03:34:04.231Z,16.67
2022-10-12T03:36:32.094Z,16.60
2022-10-12T03:39:01.137Z,16.43
2022-10-12T03:41:28.552Z,17.00
2022-10-12T03:43:55.896Z,16.53
2022-10-12T03:46:23.305Z,16.30
2022-10-12T03:48:50.633Z,16.83
2022-10-12T03:51:17.970Z,16.43
2022-10-12T03:53:45.847Z,17.07
2022-10-12T03:56:14.785Z,16.50
2022-10-12T03:58:42.124Z,17.47
2022-10-12T04:01:09.521Z,16.73
2022-10-12T04:03:37.253Z,16.60
2022-10-12T04:06:04.894Z,16.90
2022-10-12T04:08:32.278Z,16.77
2022-10-12T04:10:59.624Z,16.97
2022-10-12T04:13:28.314Z,17.40
2022-10-12T04:15:55.679Z,16.40
2022-10-12T04:18:23.020Z,16.33
2022-10-12T04:20:50.451Z,16.93
2022-10-12T04:23:18.059Z,17.57
2022-10-12T04:25:45.625Z,17.43
2022-10-12T04:28:13.062Z,16.87
2022-10-12T04:30:41.824Z,16.87
2022-10-12T04:33:09.196Z,17.93
2022-10-12T04:35:36.554Z,17.47
2022-10-12T04:38:04.063Z,18.13
2022-10-12T04:40:31.418Z,17.83
2022-10-12T04:42:58.837Z,17.17
2022-10-12T04:45:26.197Z,16.83
2022-10-12T04:47:54.869Z,16.70
2022-10-12T04:50:26.213Z,16.67
2022-10-12T04:52:56.428Z,17.00
2022-10-12T04:55:23.787Z,17.13
2022-10-12T04:57:51.122Z,16.30
2022-10-12T05:00:18.872Z,16.20
2022-10-12T05:02:46.231Z,16.30
2022-10-12T05:05:14.957Z,16.27
2022-10-12T05:07:42.409Z,15.87
2022-10-12T05:10:10.298Z,16.80
2022-10-12T05:12:37.901Z,16.30
2022-10-12T05:15:06.376Z,16.40
2022-10-12T05:17:33.749Z,17.00
2022-10-12T05:20:01.100Z,16.63
2022-10-12T05:22:29.765Z,17.17
2022-10-12T05:24:57.093Z,17.27
2022-10-12T05:27:26.590Z,17.43
2022-10-12T05:29:53.997Z,16.67
2022-10-12T05:32:21.929Z,17.40
2022-10-12T05:34:49.282Z,17.50
2022-10-12T05:37:16.708Z,18.17
2022-10-12T05:39:45.870Z,17.03
2022-10-12T05:42:13.308Z,16.73
2022-10-12T05:44:40.709Z,17.87
2022-10-12T05:47:08.606Z,16.40
2022-10-12T05:49:36.005Z,17.87
2022-10-12T05:52:03.401Z,16.90
2022-10-12T05:54:30.822Z,16.23
2022-10-12T05:56:59.677Z,16.73
2022-10-12T05:59:27.101Z,16.50
2022-10-12T06:01:54.628Z,16.87
2022-10-12T06:04:22.056Z,16.93
2022-10-12T06:06:49.429Z,16.47
2022-10-12T06:09:16.814Z,16.53
2022-10-12T06:11:44.149Z,15.83
2022-10-12T06:14:12.898Z,15.47
2022-10-12T06:16:40.233Z,15.93
2022-10-12T06:19:07.611Z,16.63
2022-10-12T06:21:35.067Z,15.80
2022-10-12T06:24:02.847Z,16.00
2022-10-12T06:26:30.192Z,16.73
2022-10-12T06:28:57.585Z,16.40
2022-10-12T06:31:26.307Z,17.00
2022-10-12T06:33:53.693Z,17.30
2022-10-12T06:36:21.083Z,17.87
2022-10-12T06:38:48.457Z,18.60
2022-10-12T06:41:15.956Z,20.10
2022-10-12T06:43:43.458Z,19.53
2022-10-12T06:46:11.850Z,19.87
2022-10-12T06:48:40.497Z,19.03
2022-10-12T06:51:07.950Z,23.40
2022-10-12T06:53:35.498Z,20.17
2022-10-12T06:56:07.205Z,24.50
2022-10-12T06:58:35.206Z,21.67
2022-10-12T07:01:03.696Z,18.23
2022-10-12T07:03:31.238Z,17.33
2022-10-12T07:06:08.222Z,20.40
2022-10-12T07:08:35.789Z,22.23
2022-10-12T07:11:04.283Z,20.07
2022-10-12T07:13:32.854Z,19.83
2022-10-12T07:16:00.461Z,19.30
2022-10-12T07:18:27.925Z,21.37
2022-10-12T07:20:58.421Z,21.57
2022-10-12T07:23:27.251Z,21.63
2022-10-12T07:25:55.072Z,22.20
2022-10-12T07:28:23.334Z,22.77
2022-10-12T07:30:51.096Z,22.83
2022-10-12T07:33:18.654Z,23.93
2022-10-12T07:36:12.910Z,25.13
2022-10-12T07:38:44.874Z,23.23
2022-10-12T07:41:12.781Z,23.17
2022-10-12T07:43:40.141Z,21.87
2022-10-12T07:46:08.094Z,22.33
2022-10-12T07:48:35.961Z,20.33
2022-10-12T07:51:07.426Z,20.93
2022-10-12T07:53:35.139Z,21.03
2022-10-12T07:56:05.208Z,20.57
2022-10-12T07:58:32.737Z,21.47
2022-10-12T08:01:05.421Z,21.53
2022-10-12T08:03:33.034Z,21.73
2022-10-12T08:06:00.421Z,21.27
2022-10-12T08:08:27.777Z,21.20
2022-10-12T08:10:57.381Z,21.03
2022-10-12T08:13:26.093Z,20.53
2022-10-12T08:15:53.458Z,20.07
2022-10-12T08:18:20.959Z,19.30
2022-10-12T08:20:48.326Z,20.40
2022-10-12T08:23:15.782Z,20.37
2022-10-12T08:25:43.921Z,19.87
2022-10-12T08:28:11.344Z,19.90
2022-10-12T08:30:40.120Z,19.60
2022-10-12T08:33:10.407Z,19.60
2022-10-12T08:35:38.905Z,19.10
2022-10-12T08:38:06.321Z,19.60
2022-10-12T08:40:37.945Z,19.90
2022-10-12T08:43:10.002Z,19.47
2022-10-12T08:45:44.972Z,20.73
2022-10-12T08:48:15.974Z,21.07
2022-10-12T08:50:47.195Z,21.00
2022-10-12T08:53:17.257Z,21.57
2022-10-12T08:55:45.660Z,20.70
2022-10-12T08:58:17.153Z,20.43
2022-10-12T09:00:48.906Z,19.93
2022-10-12T09:03:24.813Z,20.60
2022-10-12T09:05:56.273Z,21.27
2022-10-12T09:08:31.777Z,20.90
2022-10-12T09:11:06.518Z,20.33
2022-10-12T09:13:44.023Z,21.43
2022-10-12T09:16:22.233Z,21.63
2022-10-12T09:18:53.029Z,21.20
2022-10-12T09:21:23.047Z,21.00
2022-10-12T09:23:50.594Z,20.53
2022-10-12T09:26:19.951Z,20.83
2022-10-12T09:28:49.913Z,20.77
2022-10-12T09:31:30.591Z,20.63
2022-10-12T09:33:59.096Z,20.90
2022-10-12T09:36:29.319Z,21.27
2022-10-12T09:38:58.263Z,20.90
2022-10-12T09:41:27.354Z,20.63
2022-10-12T09:43:56.727Z,20.23
2022-10-12T09:46:31.585Z,20.20
2022-10-12T09:48:59.886Z,20.43
2022-10-12T09:51:28.660Z,19.97
2022-10-12T09:53:58.850Z,20.30
2022-10-12T09:56:29.618Z,19.57
2022-10-12T09:58:59.777Z,20.60
2022-10-12T10:01:30.307Z,20.23
2022-10-12T10:04:09.793Z,20.03
2022-10-12T10:06:38.079Z,20.00
2022-10-12T10:09:06.107Z,20.70
2022-10-12T10:11:33.853Z,20.20
2022-10-12T10:14:02.169Z,20.40
2022-10-12T10:16:31.499Z,19.67
2022-10-12T10:19:00.757Z,19.70
2022-10-12T10:21:31.134Z,20.50
2022-10-12T10:24:00.365Z,21.70
2022-10-12T10:26:29.216Z,20.33
2022-10-12T10:28:59.288Z,20.60
2022-10-12T10:31:29.359Z,19.93
2022-10-12T10:34:17.626Z,20.23
2022-10-12T10:36:48.377Z,20.50
2022-10-12T10:39:21.665Z,20.53
2022-10-12T10:41:49.422Z,21.23
2022-10-12T10:44:30.650Z,21.60
2022-10-12T10:47:00.450Z,19.53
2022-10-12T10:49:36.474Z,20.57
2022-10-12T10:52:04.871Z,20.30
2022-10-12T10:54:33.690Z,20.70
2022-10-12T10:57:03.791Z,20.43
2022-10-12T10:59:37.617Z,20.90
2022-10-12T11:02:16.567Z,20.77
2022-10-12T11:04:48.525Z,20.57
2022-10-12T11:07:20.381Z,20.70
2022-10-12T11:09:51.176Z,20.47
2022-10-12T11:12:21.846Z,20.57
2022-10-12T11:14:53.412Z,20.10
2022-10-12T11:17:23.621Z,20.43
2022-10-12T11:19:55.220Z,20.57
2022-10-12T11:22:25.235Z,20.00
2022-10-12T11:25:06.931Z,20.47
2022-10-12T11:27:37.913Z,21.63
2022-10-12T11:30:13.110Z,20.93
2022-10-12T11:32:43.452Z,20.80
2022-10-12T11:35:17.807Z,20.90
2022-10-12T11:37:52.099Z,20.83
2022-10-12T11:40:31.052Z,20.77
2022-10-12T11:43:14.023Z,21.07
2022-10-12T11:45:47.011Z,20.90
2022-10-12T11:48:16.347Z,21.37
2022-10-12T11:50:48.248Z,20.83
2022-10-12T11:53:21.805Z,21.03
2022-10-12T11:56:00.641Z,21.20
2022-10-12T11:58:48.856Z,21.23
2022-10-12T12:01:38.578Z,21.30
2022-10-12T12:04:40.398Z,20.93
2022-10-12T12:07:07.274Z,21.10
2022-10-12T12:09:37.883Z,21.03
2022-10-12T12:12:14.024Z,21.30
2022-10-12T12:15:04.303Z,21.30
2022-10-12T12:17:32.655Z,20.87
2022-10-12T12:20:01.397Z,21.50
2022-10-12T12:22:32.672Z,21.10
2022-10-12T12:25:04.499Z,21.23
2022-10-12T12:27:38.629Z,21.40
2022-10-12T12:30:21.673Z,20.43
2022-10-12T12:32:50.045Z,21.57
2022-10-12T12:35:26.845Z,21.53
2022-10-12T12:38:20.927Z,21.97
2022-10-12T12:41:12.694Z,21.40
2022-10-12T12:43:56.293Z,21.00
2022-10-12T12:46:26.065Z,21.53
2022-10-12T12:49:04.129Z,21.30
2022-10-12T12:51:39.850Z,21.17
2022-10-12T12:54:14.687Z,21.50
2022-10-12T12:56:53.542Z,21.20
2022-10-12T12:59:38.053Z,20.60
2022-10-12T13:02:21.568Z,21.47
2022-10-12T13:05:04.670Z,21.50
2022-10-12T13:08:07.213Z,21.33
2022-10-12T13:10:48.460Z,21.10
2022-10-12T13:13:38.946Z,21.60
2022-10-12T13:16:32.598Z,21.37
2022-10-12T13:19:07.493Z,20.93
2022-10-12T13:21:38.728Z,21.13
2022-10-12T13:24:15.499Z,21.83
2022-10-12T13:26:45.526Z,20.97
2022-10-12T13:29:18.015Z,20.87
2022-10-12T13:31:48.067Z,20.97
2022-10-12T13:34:18.514Z,22.83
2022-10-12T13:36:50.588Z,22.37
2022-10-12T13:39:19.614Z,19.57
2022-10-12T13:41:49.514Z,19.10
2022-10-12T13:44:21.053Z,18.57
2022-10-12T13:46:50.882Z,18.50
2022-10-12T13:49:21.654Z,18.60
2022-10-12T13:51:50.809Z,18.50
2022-10-12T13:54:21.246Z,18.43
2022-10-12T13:56:53.251Z,18.40
2022-10-12T13:59:23.001Z,18.27
2022-10-12T14:01:52.915Z,18.30
2022-10-12T14:04:20.758Z,18.13
2022-10-12T14:06:54.335Z,18.20
2022-10-12T14:09:23.771Z,18.73
2022-10-12T14:11:54.456Z,18.70
2022-10-12T14:14:28.446Z,17.80
2022-10-12T14:16:55.942Z,17.33
2022-10-12T14:19:34.121Z,18.20
2022-10-12T14:22:02.239Z,18.00
2022-10-12T14:24:29.826Z,17.90
2022-10-12T14:27:00.326Z,18.00
2022-10-12T14:29:32.606Z,18.10
2022-10-12T14:32:01.510Z,17.90
2022-10-12T14:34:38.627Z,18.10
2022-10-12T14:37:07.728Z,18.70
2022-10-12T14:39:35.192Z,18.20
2022-10-12T14:42:05.283Z,18.03
2022-10-12T14:44:43.502Z,18.47
2022-10-12T14:47:18.141Z,18.23
2022-10-12T14:49:46.659Z,18.70
2022-10-12T14:52:20.976Z,18.43
2022-10-12T14:54:51.522Z,18.00
2022-10-12T14:57:21.140Z,18.00
2022-10-12T14:59:48.879Z,17.77
2022-10-12T15:02:18.328Z,17.90
2022-10-12T15:04:46.398Z,18.20
2022-10-12T15:07:16.149Z,17.77
2022-10-12T15:09:44.049Z,17.83
2022-10-12T15:12:14.059Z,18.20
2022-10-12T15:14:43.369Z,17.40
2022-10-12T15:17:12.275Z,18.13
2022-10-12T15:19:40.293Z,17.87
2022-10-12T15:22:08.605Z,17.67
2022-10-12T15:24:36.134Z,17.23
2022-10-12T15:27:03.653Z,17.90
2022-10-12T15:29:31.062Z,18.50
2022-10-12T15:32:00.118Z,18.20
2022-10-12T15:34:27.750Z,17.70
2022-10-12T15:36:55.289Z,18.23
2022-10-12T15:39:22.818Z,17.80
2022-10-12T15:41:50.271Z,18.23
2022-10-12T15:44:18.145Z,18.57
2022-10-12T15:46:46.005Z,18.23
2022-10-12T15:49:19.495Z,18.17
2022-10-12T15:51:49.534Z,18.40
2022-10-12T15:54:16.997Z,18.90
2022-10-12T15:56:44.703Z,18.77
2022-10-12T15:59:12.230Z,17.67
2022-10-12T16:01:39.896Z,18.40
2022-10-12T16:04:07.590Z,18.90
2022-10-12T16:06:36.486Z,19.00
2022-10-12T16:09:04.065Z,18.67
2022-10-12T16:11:31.746Z,19.37
2022-10-12T16:13:59.163Z,18.50
2022-10-12T16:16:26.672Z,18.10
2022-10-12T16:18:54.611Z,18.80
2022-10-12T16:21:22.117Z,18.37
2022-10-12T16:23:51.083Z,17.97
2022-10-12T16:26:18.645Z,18.57
2022-10-12T16:28:46.189Z,18.20
2022-10-12T16:31:17.457Z,17.80
2022-10-12T16:33:45.360Z,17.43
2022-10-12T16:36:14.904Z,17.93
2022-10-12T16:38:42.860Z,17.10
2022-10-12T16:41:13.118Z,17.67
2022-10-12T16:43:41.084Z,17.17
2022-10-12T16:46:08.873Z,16.80
2022-10-12T16:48:36.953Z,16.77
2022-10-12T16:51:07.632Z,16.90
2022-10-12T16:53:35.282Z,16.57
2022-10-12T16:56:03.905Z,16.83
2022-10-12T16:58:32.935Z,16.53
2022-10-12T17:01:08.736Z,16.83
2022-10-12T17:03:36.245Z,17.33
2022-10-12T17:06:03.748Z,16.27
2022-10-12T17:08:33.023Z,15.73
2022-10-12T17:11:00.440Z,14.43
2022-10-12T17:13:28.133Z,14.50
2022-10-12T17:16:04.294Z,14.30
2022-10-12T17:18:31.676Z,15.00
2022-10-12T17:20:59.601Z,15.80
2022-10-12T17:23:27.075Z,15.53
2022-10-12T17:25:59.665Z,14.27
2022-10-12T17:28:27.132Z,14.13
2022-10-12T17:30:54.546Z,13.10
2022-10-12T17:33:23.422Z,13.47
2022-10-12T17:35:50.880Z,13.70
2022-10-12T17:38:18.292Z,13.67
2022-10-12T17:40:45.685Z,14.63
2022-10-12T17:43:13.121Z,14.40
2022-10-12T17:45:41.864Z,14.13
2022-10-12T17:48:09.245Z,14.47
2022-10-12T17:50:39.909Z,14.30
2022-10-12T17:53:08.982Z,14.23
2022-10-12T17:55:48.196Z,15.00
2022-10-12T17:58:16.382Z,14.27
2022-10-12T18:00:43.893Z,14.63
2022-10-12T18:03:12.447Z,14.37
2022-10-12T18:05:41.194Z,14.43
2022-10-12T18:08:08.718Z,15.97
2022-10-12T18:10:40.360Z,16.00
2022-10-12T18:13:07.838Z,14.00
2022-10-12T18:15:35.274Z,13.33
2022-10-12T18:18:02.720Z,13.77
2022-10-12T18:20:30.136Z,13.30
2022-10-12T18:22:58.897Z,13.50
2022-10-12T18:25:26.385Z,13.90
2022-10-12T18:28:04.936Z,13.70
2022-10-12T18:30:32.492Z,13.50
2022-10-12T18:33:00.316Z,14.00
2022-10-12T18:35:31.128Z,13.97
2022-10-12T18:38:00.318Z,14.17
2022-10-12T18:40:27.845Z,15.43
2022-10-12T18:42:55.278Z,14.73
2022-10-12T18:45:22.689Z,15.50
2022-10-12T18:47:50.119Z,15.33
2022-10-12T18:50:17.922Z,17.33
2022-10-12T18:52:45.360Z,15.30
2022-10-12T18:55:14.430Z,16.27
2022-10-12T18:57:41.835Z,16.60
2022-10-12T19:00:10.629Z,17.43
2022-10-12T19:02:38.129Z,16.10
2022-10-12T19:05:06.675Z,15.73
2022-10-12T19:07:35.267Z,15.17
2022-10-12T19:10:02.879Z,15.73
2022-10-12T19:12:31.745Z,15.53
2022-10-12T19:14:59.441Z,16.17
2022-10-12T19:17:27.107Z,15.53
2022-10-12T19:19:54.650Z,15.90
2022-10-12T19:22:22.118Z,15.33
2022-10-12T19:24:49.704Z,14.57
2022-10-12T19:27:17.392Z,13.73
2022-10-12T19:29:46.590Z,14.27
2022-10-12T19:32:14.289Z,15.30
2022-10-12T19:34:41.712Z,13.93
2022-10-12T19:37:09.218Z,13.97
2022-10-12T19:39:36.609Z,14.27
2022-10-12T19:42:04.204Z,13.70
2022-10-12T19:44:31.658Z,14.40
2022-10-12T19:47:01.071Z,13.77
2022-10-12T19:49:31.030Z,13.27
2022-10-12T19:52:00.643Z,13.10
2022-10-12T19:54:28.051Z,13.10
2022-10-12T19:56:55.437Z,13.90
2022-10-12T19:59:23.104Z,13.50
2022-10-12T20:01:50.594Z,13.30
2022-10-12T20:04:19.325Z,12.73
2022-10-12T20:06:46.738Z,13.50
2022-10-12T20:09:14.242Z,14.13
2022-10-12T20:11:41.601Z,14.27
2022-10-12T20:14:09.095Z,15.47
2022-10-12T20:16:37.254Z,15.83
2022-10-12T20:19:07.059Z,15.40
2022-10-12T20:21:37.098Z,16.13
2022-10-12T20:24:04.972Z,15.07
2022-10-12T20:26:32.312Z,16.00
2022-10-12T20:28:59.704Z,16.33
2022-10-12T20:31:29.457Z,15.73
2022-10-12T20:33:58.215Z,16.83
2022-10-12T20:36:27.451Z,15.93
2022-10-12T20:38:57.252Z,16.33
2022-10-12T20:41:25.280Z,17.77
2022-10-12T20:43:55.534Z,16.87
2022-10-12T20:46:22.941Z,17.20
2022-10-12T20:48:52.521Z,17.50
2022-10-12T20:51:25.349Z,17.50
2022-10-12T20:53:53.380Z,17.57
2022-10-12T20:56:22.175Z,17.37
2022-10-12T20:58:49.600Z,17.77
2022-10-12T21:01:17.943Z,17.37
2022-10-12T21:03:45.375Z,16.77
2022-10-12T21:06:13.975Z,18.47
2022-10-12T21:08:41.396Z,17.47
2022-10-12T21:11:09.446Z,17.37
2022-10-12T21:13:40.823Z,16.73
2022-10-12T21:16:08.781Z,16.97
2022-10-12T21:18:38.216Z,16.67
2022-10-12T21:21:11.253Z,17.07
2022-10-12T21:23:38.704Z,17.40
2022-10-12T21:26:10.122Z,17.40
2022-10-12T21:28:38.930Z,17.33
2022-10-12T21:31:07.018Z,17.77
2022-10-12T21:33:34.474Z,17.83
2022-10-12T21:36:09.767Z,17.67
2022-10-12T21:38:37.170Z,16.70
2022-10-12T21:41:04.898Z,17.53
2022-10-12T21:43:32.391Z,17.30
2022-10-12T21:46:04.652Z,17.20
2022-10-12T21:48:32.939Z,18.00
2022-10-12T21:51:00.395Z,17.90
2022-10-12T21:53:27.965Z,18.13
2022-10-12T21:55:55.379Z,18.27
2022-10-12T21:58:24.758Z,16.47
2022-10-12T22:00:52.165Z,16.53
2022-10-12T22:03:20.919Z,17.30
2022-10-12T22:05:48.352Z,17.13
2022-10-12T22:08:15.745Z,17.23
2022-10-12T22:10:43.101Z,17.00
2022-10-12T22:13:10.552Z,16.67
2022-10-12T22:15:37.946Z,16.40
2022-10-12T22:18:12.047Z,16.20
2022-10-12T22:20:40.795Z,15.57
2022-10-12T22:23:08.177Z,16.40
2022-10-12T22:25:35.558Z,16.20
2022-10-12T22:28:02.934Z,16.37
2022-10-12T22:30:30.735Z,16.27
2022-10-12T22:32:58.233Z,16.43
2022-10-12T22:35:25.772Z,15.83
2022-10-12T22:37:54.505Z,16.23
2022-10-12T22:40:21.933Z,16.43
2022-10-12T22:42:49.533Z,15.97
2022-10-12T22:45:17.177Z,15.33
2022-10-12T22:47:45.103Z,15.77
2022-10-12T22:50:12.485Z,15.87
2022-10-12T22:52:40.025Z,15.70
2022-10-12T22:55:10.071Z,16.20
2022-10-12T22:57:38.714Z,16.90
2022-10-12T23:00:07.122Z,16.50
2022-10-12T23:02:34.860Z,17.23
2022-10-12T23:05:02.241Z,15.50
2022-10-12T23:07:29.666Z,15.73
2022-10-12T23:09:57.106Z,15.47
2022-10-12T23:12:26.461Z,16.33
2022-10-12T23:14:54.537Z,14.90
2022-10-12T23:17:21.944Z,16.30
2022-10-12T23:19:49.302Z,15.83
2022-10-12T23:22:17.024Z,16.17
2022-10-12T23:24:44.632Z,16.03
2022-10-12T23:27:12.044Z,15.33
2022-10-12T23:29:42.136Z,16.60
2022-10-12T23:32:11.890Z,16.03
2022-10-12T23:34:39.349Z,17.70
2022-10-12T23:37:06.838Z,17.23
2022-10-12T23:39:34.330Z,17.27
2022-10-12T23:42:01.949Z,16.80
2022-10-12T23:44:29.407Z,16.57
2022-10-12T23:46:58.150Z,16.20
2022-10-12T23:49:25.682Z,17.13
2022-10-12T23:51:54.570Z,16.33
2022-10-12T23:54:21.961Z,16.90
2022-10-12T23:56:50.772Z,17.23
2022-10-12T23:59:18.175Z,16.90
